Portada
METAR-TAF:

METAR-TAF

Aeroports :

Cascavel, Paranà, Brasil

latitud: 25-00-08S, longitud: 53-30-07W, altitud: 754 m

Observació

L'informe es va fer fa 3 hores i 2 minuts, a les 18:00 UTC
Vent 12 kt del Nord-Est
Temperatura 26°C
Humitat 34%
Pressió 1023 hPa
Visibilitat 10 km o més
sense núvols per sota de 1500 mi sense presència de cumulonimbus.

METAR: SBCA 071800Z 04012KT CAVOK 26/09 Q1023

Hora: 18:02 (21:02 UTC)


TAF: manca

Observacions i pronòstics meteorològics de més de 4000 aeroports (METAR i TAF).

Les estacions disponibles són els punts grocs i vermells al mapa.

Posi el ratolí al punt desitjat per veure el nom de l'estació.

Feu clic per veure les observacions i els pronòstics meteorològics.

Per canviar el mapa: feu clic els botons verds amb una creu de color negre per apropar; al botó verd amb un guió per allunyar la imatge; o en les fletxes verdes per a mapes adjacents.


METAR-TAF: